Time;durP1;ratioP1;P1;durP2;ratioP2;P2;SDS_P1;SDS_P2;PMS_P1;PMS_P2;Temp;Humidity;BMP_temperature;BMP_pressure;BME280_temperature;BME280_humidity;BME280_pressure;Samples;Min_cycle;Max_cycle;Signal;HPM_P1;HPM_P2
2022/09/27 00:00:58;;;;;;;12.15;2.47;;;;;;;9.71;100.00;99494.25;5067620;28;20117;-69
2022/09/27 00:03:24;;;;;;;9.02;2.35;;;;;;;9.73;100.00;99491.47;5067511;28;20221;-67
2022/09/27 00:06:17;;;;;;;14.57;2.35;;;;;;;9.64;100.00;99497.53;5067656;28;20036;-68
2022/09/27 00:08:43;;;;;;;8.60;2.95;;;;;;;9.63;100.00;99496.69;5052222;28;20148;-71
2022/09/27 00:11:27;;;;;;;16.63;3.35;;;;;;;9.62;100.00;99495.00;5062811;28;20823;-70
2022/09/27 00:13:55;;;;;;;11.40;3.30;;;;;;;9.67;100.00;99499.94;5064336;28;20560;-69
2022/09/27 00:16:21;;;;;;;14.38;3.40;;;;;;;9.65;100.00;99496.56;5062211;28;20040;-69
2022/09/27 00:18:47;;;;;;;12.20;3.20;;;;;;;9.67;100.00;99502.59;5068051;28;20075;-69
2022/09/27 00:21:12;;;;;;;11.82;3.28;;;;;;;9.71;100.00;99514.72;5068264;28;20021;-71
2022/09/27 00:23:39;;;;;;;19.67;3.78;;;;;;;9.73;100.00;99507.44;5062829;28;20033;-69
2022/09/27 00:26:06;;;;;;;13.88;3.33;;;;;;;9.65;100.00;99517.88;5064696;28;20122;-70
2022/09/27 00:28:32;;;;;;;9.48;2.97;;;;;;;9.63;100.00;99519.78;5063253;28;20119;-68
2022/09/27 00:30:58;;;;;;;8.82;2.80;;;;;;;9.60;100.00;99515.56;5051412;28;20486;-68
2022/09/27 00:33:25;;;;;;;14.07;4.03;;;;;;;9.61;100.00;99511.94;5066036;28;20039;-68
2022/09/27 00:35:50;;;;;;;13.20;3.00;;;;;;;9.57;100.00;99521.97;5045725;28;20045;-68
2022/09/27 00:38:16;;;;;;;17.80;3.13;;;;;;;9.58;100.00;99521.00;5061188;28;20083;-68
2022/09/27 00:40:42;;;;;;;19.13;3.63;;;;;;;9.61;100.00;99514.59;5045246;28;20047;-68
2022/09/27 00:43:25;;;;;;;19.50;4.18;;;;;;;9.60;100.00;99516.41;5047962;28;20040;-71
2022/09/27 00:46:00;;;;;;;15.93;3.92;;;;;;;9.66;100.00;99528.38;5053788;28;20079;-68
2022/09/27 00:48:30;;;;;;;8.48;2.60;;;;;;;9.61;100.00;99527.91;5047303;28;20060;-67
2022/09/27 00:51:00;;;;;;;10.77;3.05;;;;;;;9.59;100.00;99537.84;5058521;28;20037;-69
2022/09/27 00:53:50;;;;;;;7.53;2.55;;;;;;;9.56;100.00;99527.44;5057859;28;20046;-68
2022/09/27 00:56:23;;;;;;;9.18;2.63;;;;;;;9.59;100.00;99537.84;5042773;28;20393;-68
2022/09/27 00:59:06;;;;;;;13.00;2.95;;;;;;;9.57;100.00;99531.78;5062643;28;20058;-68
2022/09/27 01:01:32;;;;;;;7.43;2.42;;;;;;;9.54;100.00;99535.56;5046366;28;20588;-70
2022/09/27 01:04:04;;;;;;;9.18;2.40;;;;;;;9.55;100.00;99533.72;5063046;28;20052;-69
2022/09/27 01:06:30;;;;;;;13.98;2.75;;;;;;;9.54;100.00;99540.88;5056675;28;20230;-70
2022/09/27 01:08:55;;;;;;;8.85;2.15;;;;;;;9.52;100.00;99548.13;5057851;28;20614;-68
2022/09/27 01:11:37;;;;;;;13.77;2.45;;;;;;;9.51;100.00;99542.91;5043464;28;20697;-70
2022/09/27 01:14:27;;;;;;;7.85;1.80;;;;;;;9.51;100.00;99534.94;5059093;28;20043;-70
2022/09/27 01:17:30;;;;;;;5.60;1.88;;;;;;;9.56;100.00;99546.91;5061375;28;20040;-69
2022/09/27 01:20:29;;;;;;;10.10;1.60;;;;;;;9.53;100.00;99544.47;5060223;28;20108;-69
2022/09/27 01:23:32;;;;;;;6.38;1.50;;;;;;;9.49;100.00;99545.72;5043742;28;20111;-68
2022/09/27 01:26:18;;;;;;;7.70;1.92;;;;;;;9.51;100.00;99551.75;5040817;28;20048;-70
2022/09/27 01:29:02;;;;;;;9.60;1.55;;;;;;;9.53;100.00;99555.13;5064904;28;20047;-70
2022/09/27 01:31:31;;;;;;;6.82;1.13;;;;;;;9.47;100.00;99557.44;5042488;28;20237;-70
2022/09/27 01:34:02;;;;;;;5.75;2.20;;;;;;;9.44;100.00;99566.53;5063275;28;20675;-71
2022/09/27 01:36:41;;;;;;;3.95;1.00;;;;;;;9.43;100.00;99564.81;5044278;28;20064;-71
2022/09/27 01:39:58;;;;;;;5.78;1.63;;;;;;;9.50;100.00;99563.38;5038323;28;20083;-70
2022/09/27 01:42:54;;;;;;;8.55;2.03;;;;;;;9.55;100.00;99563.84;5017387;28;20153;-69
2022/09/27 01:45:28;;;;;;;9.07;1.80;;;;;;;9.57;100.00;99563.72;5005079;28;20785;-70
2022/09/27 01:48:33;;;;;;;5.85;1.48;;;;;;;9.59;100.00;99559.13;5018547;28;20653;-69
2022/09/27 01:51:08;;;;;;;4.38;1.77;;;;;;;9.59;100.00;99562.63;5021073;28;20097;-69
2022/09/27 01:53:38;;;;;;;9.68;2.60;;;;;;;9.63;100.00;99565.03;5007041;28;20107;-70
2022/09/27 01:56:23;;;;;;;6.28;1.77;;;;;;;9.53;100.00;99567.59;5020285;28;20056;-71
2022/09/27 01:58:59;;;;;;;8.50;2.20;;;;;;;9.47;100.00;99558.28;5019863;28;20068;-69
2022/09/27 02:01:27;;;;;;;12.05;2.17;;;;;;;9.43;100.00;99564.81;4999384;28;20597;-69
2022/09/27 02:03:57;;;;;;;8.48;3.28;;;;;;;9.42;100.00;99572.91;5004134;28;20060;-69
2022/09/27 02:06:47;;;;;;;14.25;2.40;;;;;;;9.36;100.00;99570.75;5021128;28;20049;-70
2022/09/27 02:09:29;;;;;;;8.77;2.42;;;;;;;9.28;100.00;99564.19;5017341;28;20158;-69
2022/09/27 02:12:33;;;;;;;10.80;1.90;;;;;;;9.23;100.00;99569.03;5006417;28;20049;-71
2022/09/27 02:15:08;;;;;;;3.60;1.80;;;;;;;9.14;100.00;99563.63;5002630;28;20076;-71
2022/09/27 02:17:55;;;;;;;7.97;2.05;;;;;;;9.11;100.00;99558.53;5006792;28;20163;-69
2022/09/27 02:20:48;;;;;;;6.95;1.85;;;;;;;8.98;100.00;99562.13;5042645;28;20032;-68
2022/09/27 02:23:25;;;;;;;7.60;1.88;;;;;;;8.87;100.00;99561.25;5042159;28;20079;-66
2022/09/27 02:26:08;;;;;;;4.32;1.63;;;;;;;8.82;100.00;99561.63;5058026;28;20032;-69
2022/09/27 02:28:42;;;;;;;8.77;1.50;;;;;;;8.80;100.00;99556.41;5038185;28;20094;-70
2022/09/27 02:31:09;;;;;;;8.98;1.42;;;;;;;8.73;100.00;99560.50;5045074;28;20041;-68
2022/09/27 02:33:45;;;;;;;4.78;1.23;;;;;;;8.64;100.00;99561.22;5042266;28;20104;-72
2022/09/27 02:36:11;;;;;;;6.45;1.30;;;;;;;8.65;100.00;99564.72;5038949;28;20041;-68
2022/09/27 02:38:36;;;;;;;6.18;1.52;;;;;;;8.58;100.00;99559.00;5036006;28;20035;-68
2022/09/27 02:41:03;;;;;;;9.23;2.00;;;;;;;8.57;100.00;99560.81;5057205;28;20473;-68
2022/09/27 02:43:31;;;;;;;8.25;1.30;;;;;;;8.50;100.00;99556.94;5044486;28;20033;-69
2022/09/27 02:46:02;;;;;;;12.00;1.55;;;;;;;8.42;100.00;99558.47;5046404;28;20064;-71
2022/09/27 02:48:42;;;;;;;11.48;1.65;;;;;;;8.42;100.00;99555.81;5046186;28;20037;-69
2022/09/27 02:51:24;;;;;;;11.82;1.80;;;;;;;8.40;100.00;99555.94;5040126;28;20037;-69
2022/09/27 02:54:04;;;;;;;6.10;1.70;;;;;;;8.38;100.00;99549.88;5030096;28;20029;-70
2022/09/27 02:57:15;;;;;;;5.80;1.50;;;;;;;8.35;100.00;99552.75;5062512;28;20125;-67
2022/09/27 03:00:18;;;;;;;6.65;1.70;;;;;;;8.34;100.00;99547.56;5054169;28;20059;-66
2022/09/27 03:03:21;;;;;;;10.13;1.73;;;;;;;8.33;100.00;99549.34;5043641;28;20112;-70
2022/09/27 03:06:03;;;;;;;;;;;;;;;8.28;100.00;99554.16;5055481;28;20041;-69
2022/09/27 03:08:28;;;;;;;8.70;1.20;;;;;;;8.22;100.00;99552.81;5039753;28;20002;-70
2022/09/27 03:10:54;;;;;;;4.65;1.42;;;;;;;8.22;100.00;99555.47;5046651;28;20491;-70
2022/09/27 03:13:20;;;;;;;9.85;1.63;;;;;;;8.22;100.00;99554.63;5046598;28;20036;-71
2022/09/27 03:15:47;;;;;;;13.63;1.77;;;;;;;8.14;100.00;99547.25;5047137;28;20290;-69
2022/09/27 03:18:47;;;;;;;10.57;1.35;;;;;;;8.14;100.00;99543.75;5060252;28;20041;-70
2022/09/27 03:21:38;;;;;;;5.00;1.67;;;;;;;8.16;100.00;99553.28;5053303;28;20127;-69
2022/09/27 03:24:04;;;;;;;10.60;1.83;;;;;;;8.22;100.00;99559.94;5065944;28;20065;-68
2022/09/27 03:26:30;;;;;;;5.78;1.30;;;;;;;8.21;100.00;99555.59;5045478;28;20686;-68
2022/09/27 03:28:56;;;;;;;9.38;1.90;;;;;;;8.22;100.00;99557.28;5067399;28;20098;-67
2022/09/27 03:31:22;;;;;;;7.50;1.75;;;;;;;8.19;100.00;99557.53;5051594;28;20040;-68
2022/09/27 03:34:11;;;;;;;9.82;1.60;;;;;;;8.24;100.00;99563.34;5052543;28;20083;-69
2022/09/27 03:36:36;;;;;;;7.45;1.85;;;;;;;8.19;100.00;99561.03;5068136;28;20032;-69
2022/09/27 03:39:02;;;;;;;5.20;1.63;;;;;;;8.22;100.00;99558.13;5050363;28;20040;-71
2022/09/27 03:41:28;;;;;;;7.85;1.67;;;;;;;8.24;100.00;99563.34;5051782;28;20051;-69
2022/09/27 03:43:56;;;;;;;10.70;2.75;;;;;;;8.25;100.00;99565.88;5045537;28;20137;-72
2022/09/27 03:46:22;;;;;;;9.73;1.55;;;;;;;8.28;100.00;99563.00;5050475;28;20025;-69
2022/09/27 03:48:48;;;;;;;8.25;1.48;;;;;;;8.29;100.00;99561.19;5048929;28;20045;-70
2022/09/27 03:51:14;;;;;;;16.05;1.90;;;;;;;8.34;100.00;99560.84;5049118;28;20037;-72
2022/09/27 03:53:39;;;;;;;11.35;2.63;;;;;;;8.37;100.00;99557.97;5050579;28;20048;-71
2022/09/27 03:56:05;;;;;;;7.13;1.38;;;;;;;8.35;100.00;99562.53;5048294;28;20047;-68
2022/09/27 03:58:30;;;;;;;10.27;1.73;;;;;;;8.35;100.00;99563.38;5066038;28;20040;-71
2022/09/27 04:00:57;;;;;;;4.28;1.42;;;;;;;8.34;100.00;99572.31;5050012;28;20036;-70
2022/09/27 04:03:22;;;;;;;10.98;1.90;;;;;;;8.38;100.00;99572.94;5049595;28;20045;-72
2022/09/27 04:06:07;;;;;;;7.28;1.83;;;;;;;8.36;100.00;99574.84;5067110;28;20047;-72
2022/09/27 04:08:38;;;;;;;9.00;1.60;;;;;;;8.40;100.00;99571.88;5027668;28;20048;-73
2022/09/27 04:11:05;;;;;;;7.60;2.15;;;;;;;8.41;100.00;99581.53;5048579;28;20040;-70
2022/09/27 04:13:31;;;;;;;10.20;2.45;;;;;;;8.45;100.00;99569.72;5030179;28;20029;-71
2022/09/27 04:15:57;;;;;;;13.63;2.75;;;;;;;8.42;100.00;99580.56;5067005;28;20037;-68
2022/09/27 04:18:57;;;;;;;18.50;2.80;;;;;;;8.35;100.00;99568.69;4966281;28;20039;-70
2022/09/27 04:21:44;;;;;;;10.88;3.75;;;;;;;8.31;100.00;99577.84;4952432;28;20066;-72
2022/09/27 04:24:11;;;;;;;10.48;2.65;;;;;;;8.32;100.00;99577.72;4953663;28;20718;-71
2022/09/27 04:26:38;;;;;;;12.70;2.75;;;;;;;8.42;100.00;99585.03;4952018;28;20105;-69
2022/09/27 04:29:09;;;;;;;11.52;3.30;;;;;;;8.47;100.00;99580.22;4965363;28;21921;-70
2022/09/27 04:31:37;;;;;;;6.85;2.53;;;;;;;8.50;100.00;99572.03;4966827;28;20125;-70
2022/09/27 04:37:24;;;;;;;6.00;2.20;;;;;;;8.52;100.00;99578.06;4927860;29;20446;-73
2022/09/27 04:39:53;;;;;;;13.98;2.10;;;;;;;8.50;100.00;99580.00;4912222;29;20084;-71
2022/09/27 04:42:18;;;;;;;17.30;2.60;;;;;;;8.54;100.00;99582.31;4904668;29;20052;-71
2022/09/27 04:44:44;;;;;;;11.68;2.25;;;;;;;8.57;100.00;99579.41;4927063;29;20058;-69
2022/09/27 04:47:10;;;;;;;20.92;3.80;;;;;;;8.56;100.00;99568.91;4926677;29;20048;-72
2022/09/27 04:49:37;;;;;;;11.40;2.92;;;;;;;8.59;100.00;99579.31;4927077;29;20043;-70
2022/09/27 04:52:04;;;;;;;18.67;2.80;;;;;;;8.55;100.00;99575.19;4938207;28;20306;-70
2022/09/27 04:54:31;;;;;;;6.13;2.38;;;;;;;8.57;100.00;99568.78;5006572;28;20079;-70
2022/09/27 04:57:07;;;;;;;14.80;4.05;;;;;;;8.57;100.00;99582.06;4999835;28;20252;-70
2022/09/27 04:59:32;;;;;;;11.45;2.95;;;;;;;8.58;100.00;99572.28;4990881;28;20478;-71
2022/09/27 05:02:00;;;;;;;13.38;3.35;;;;;;;8.54;100.00;99581.47;5009548;28;20513;-71
2022/09/27 05:04:45;;;;;;;11.45;2.42;;;;;;;8.60;100.00;99580.16;5022506;28;20216;-70
2022/09/27 05:07:10;;;;;;;9.43;2.25;;;;;;;8.65;100.00;99572.69;5002618;28;20134;-71
2022/09/27 05:09:42;;;;;;;11.60;2.40;;;;;;;8.65;100.00;99581.50;5041384;28;20063;-73
2022/09/27 05:12:07;;;;;;;19.88;3.50;;;;;;;8.56;100.00;99583.03;5044398;28;20612;-69
2022/09/27 05:14:33;;;;;;;21.63;3.33;;;;;;;8.54;100.00;99590.28;5065618;28;20036;-72
2022/09/27 05:17:09;;;;;;;9.23;2.30;;;;;;;8.48;100.00;99585.44;5042172;28;20128;-69
2022/09/27 05:19:53;;;;;;;12.63;2.58;;;;;;;8.45;100.00;99590.13;5065429;28;20078;-72
2022/09/27 05:22:32;;;;;;;17.38;2.53;;;;;;;8.46;100.00;99591.81;5046185;28;20058;-71
2022/09/27 05:24:57;;;;;;;9.65;2.63;;;;;;;8.42;100.00;99598.31;5043868;28;20571;-73
2022/09/27 05:27:23;;;;;;;14.63;2.35;;;;;;;8.44;100.00;99599.06;5045467;28;20032;-71
2022/09/27 05:29:50;;;;;;;8.18;2.15;;;;;;;8.40;100.00;99603.75;5048473;28;20524;-72
2022/09/27 05:32:20;;;;;;;7.35;2.10;;;;;;;8.40;100.00;99600.25;5032075;28;20040;-71
2022/09/27 05:34:52;;;;;;;7.38;2.10;;;;;;;8.35;100.00;99603.22;5041217;28;20053;-68
2022/09/27 05:37:18;;;;;;;21.30;3.15;;;;;;;8.39;100.00;99607.38;5046637;28;20033;-72
2022/09/27 05:39:45;;;;;;;6.35;1.60;;;;;;;8.39;100.00;99596.75;5047248;28;20059;-72
2022/09/27 05:42:14;;;;;;;12.98;2.40;;;;;;;8.39;100.00;99595.91;5044925;28;20041;-71
2022/09/27 05:44:40;;;;;;;12.30;2.47;;;;;;;8.41;100.00;99604.59;5041341;28;20061;-69
2022/09/27 05:47:06;;;;;;;14.55;3.88;;;;;;;8.43;100.00;99602.66;5066610;28;20059;-70
2022/09/27 05:49:32;;;;;;;13.02;2.70;;;;;;;8.43;100.00;99608.81;5047704;28;20131;-71
2022/09/27 05:51:59;;;;;;;12.10;2.42;;;;;;;8.39;100.00;99609.19;5038700;28;20110;-69
2022/09/27 05:54:28;;;;;;;9.70;2.72;;;;;;;8.32;100.00;99601.63;5066757;28;20416;-72
2022/09/27 05:56:59;;;;;;;9.82;2.47;;;;;;;8.38;100.00;99607.47;5047414;28;20036;-72
2022/09/27 05:59:46;;;;;;;8.13;2.42;;;;;;;8.38;100.00;99612.78;5043041;28;20044;-72
2022/09/27 06:02:21;;;;;;;8.45;3.00;;;;;;;8.34;100.00;99604.19;5057215;28;20059;-70
2022/09/27 06:05:06;;;;;;;5.50;1.45;;;;;;;8.34;100.00;99614.81;5065578;28;20906;-71
2022/09/27 06:07:51;;;;;;;3.38;1.50;;;;;;;8.30;100.00;99613.34;5060434;28;20892;-71
2022/09/27 06:10:24;;;;;;;9.57;1.85;;;;;;;8.31;100.00;99610.56;5043958;28;20044;-72
2022/09/27 06:12:50;;;;;;;10.02;2.13;;;;;;;8.31;100.00;99615.03;5046217;28;20037;-71
2022/09/27 06:15:28;;;;;;;5.38;1.30;;;;;;;8.34;100.00;99614.81;5041032;28;20589;-70
2022/09/27 06:17:54;;;;;;;7.68;1.50;;;;;;;8.30;100.00;99611.53;5046493;28;20051;-71
2022/09/27 06:20:20;;;;;;;7.40;2.78;;;;;;;8.32;100.00;99612.25;5043799;28;20033;-71
2022/09/27 06:22:46;;;;;;;14.45;1.88;;;;;;;8.35;100.00;99619.16;5047107;28;20029;-70
2022/09/27 06:25:17;;;;;;;5.20;1.67;;;;;;;8.40;100.00;99616.19;5046537;28;20068;-71
2022/09/27 06:27:56;;;;;;;5.32;1.90;;;;;;;8.48;100.00;99622.63;5040535;28;20098;-70
2022/09/27 06:30:26;;;;;;;7.07;1.50;;;;;;;8.54;100.00;99621.34;5045461;28;20036;-71
2022/09/27 06:32:59;;;;;;;4.03;1.65;;;;;;;8.59;100.00;99624.50;5018733;28;20150;-71
2022/09/27 06:35:30;;;;;;;7.55;1.50;;;;;;;8.74;100.00;99631.31;5041399;28;20036;-73
2022/09/27 06:37:56;;;;;;;3.08;1.20;;;;;;;9.07;100.00;99635.03;5025638;28;20600;-70
2022/09/27 06:40:25;;;;;;;6.70;1.60;;;;;;;9.32;100.00;99639.28;5042278;28;20512;-70
2022/09/27 06:42:54;;;;;;;4.70;1.40;;;;;;;9.61;100.00;99647.66;5061857;28;20140;-72
2022/09/27 06:45:37;;;;;;;8.50;1.65;;;;;;;9.75;100.00;99630.63;5039394;28;20051;-70
2022/09/27 06:48:21;;;;;;;7.57;1.98;;;;;;;9.42;100.00;99642.94;5062340;28;20124;-69
2022/09/27 06:51:03;;;;;;;3.95;1.00;;;;;;;9.45;100.00;99644.53;5043956;28;20060;-72
2022/09/27 06:53:29;;;;;;;7.47;1.20;;;;;;;9.84;100.00;99635.22;5045919;28;20647;-69
2022/09/27 06:55:59;;;;;;;2.22;1.13;;;;;;;10.22;100.00;99637.44;5039420;28;20094;-69
2022/09/27 07:01:32;;;;;;;3.00;1.02;;;;;;;10.77;100.00;99640.09;5064438;28;20048;-69
2022/09/27 07:04:24;;;;;;;3.65;0.90;;;;;;;10.96;100.00;99653.56;5062033;28;20053;-69
2022/09/27 07:07:06;;;;;;;3.35;1.02;;;;;;;10.94;100.00;99646.66;5042768;28;20109;-68
2022/09/27 07:09:39;;;;;;;1.52;1.00;;;;;;;10.87;100.00;99652.50;5036754;28;20039;-70
2022/09/27 07:12:06;;;;;;;5.30;1.20;;;;;;;10.50;100.00;99659.22;5046170;28;20033;-66
2022/09/27 07:14:33;;;;;;;0.90;0.90;;;;;;;10.40;100.00;99655.63;5046839;28;20044;-69
2022/09/27 07:16:59;;;;;;;3.70;1.00;;;;;;;10.57;100.00;99657.72;5043749;28;20037;-69
2022/09/27 07:19:28;;;;;;;3.58;1.00;;;;;;;10.84;100.00;99660.78;5041572;28;20040;-69
2022/09/27 07:21:54;;;;;;;4.10;1.45;;;;;;;10.89;100.00;99661.25;5045961;28;20065;-67
2022/09/27 07:24:21;;;;;;;6.70;2.15;;;;;;;11.23;100.00;99663.72;5066398;28;20167;-68
2022/09/27 07:26:48;;;;;;;4.80;1.42;;;;;;;11.17;100.00;99668.75;5035482;28;20032;-71
2022/09/27 07:29:15;;;;;;;2.30;1.42;;;;;;;10.91;100.00;99678.94;5042718;28;20071;-68
2022/09/27 07:31:41;;;;;;;3.40;1.58;;;;;;;10.57;100.00;99679.06;5045430;28;20032;-68
2022/09/27 07:34:07;;;;;;;8.70;1.33;;;;;;;10.38;100.00;99677.88;5042410;28;20093;-69
2022/09/27 07:36:33;;;;;;;5.05;0.98;;;;;;;10.26;100.00;99686.03;5045125;28;20060;-69
2022/09/27 07:38:59;;;;;;;1.67;1.20;;;;;;;10.17;100.00;99676.94;5029097;28;20036;-70
2022/09/27 07:41:25;;;;;;;4.03;1.90;;;;;;;10.18;100.00;99675.09;5027430;28;20063;-69
2022/09/27 07:43:53;;;;;;;6.97;1.38;;;;;;;10.16;100.00;99677.06;5045280;28;20044;-72
2022/09/27 07:46:19;;;;;;;6.07;2.47;;;;;;;10.36;100.00;99676.31;5044174;28;20028;-69
2022/09/27 07:48:52;;;;;;;4.13;1.17;;;;;;;10.33;100.00;99668.56;5045930;28;20033;-69
2022/09/27 07:51:47;;;;;;;2.63;1.42;;;;;;;10.44;100.00;99679.22;5042574;28;20060;-73
2022/09/27 07:54:32;;;;;;;3.88;2.05;;;;;;;10.60;100.00;99676.16;5051832;28;20883;-70
2022/09/27 07:57:04;;;;;;;5.38;1.50;;;;;;;10.60;100.00;99687.66;5045041;28;20082;-71
2022/09/27 07:59:30;;;;;;;2.17;1.13;;;;;;;10.91;100.00;99678.94;5039997;28;20045;-72
2022/09/27 08:01:55;;;;;;;4.40;1.70;;;;;;;10.89;100.00;99685.25;5043010;28;20036;-72
2022/09/27 08:04:21;;;;;;;6.30;1.33;;;;;;;11.05;100.00;99684.81;5042234;28;20047;-68
2022/09/27 08:06:46;;;;;;;4.43;1.77;;;;;;;11.44;100.00;99693.06;5061130;28;20101;-68
2022/09/27 08:09:12;;;;;;;3.92;1.38;;;;;;;11.47;100.00;99683.97;5038578;28;20040;-68
2022/09/27 08:11:39;;;;;;;1.92;1.27;;;;;;;11.23;100.00;99695.75;5041218;28;20151;-71
2022/09/27 08:14:05;;;;;;;8.38;2.22;;;;;;;11.20;100.00;99692.50;5034725;28;20041;-70
2022/09/27 08:16:33;;;;;;;1.77;1.10;;;;;;;11.15;100.00;99696.41;5042516;28;20043;-69
2022/09/27 08:19:18;;;;;;;3.70;1.30;;;;;;;11.17;100.00;99700.75;5037309;28;20033;-72
2022/09/27 08:22:02;;;;;;;6.03;1.50;;;;;;;11.37;100.00;99707.94;5038818;28;20439;-69
2022/09/27 08:24:35;;;;;;;4.32;1.60;;;;;;;11.41;100.00;99704.88;5054349;28;20060;-68
2022/09/27 08:27:06;;;;;;;3.95;1.05;;;;;;;11.22;100.00;99710.06;5042878;28;20047;-70
2022/09/27 08:29:59;;;;;;;4.18;1.15;;;;;;;11.36;100.00;99711.56;5057295;28;20411;-71
2022/09/27 08:32:26;;;;;;;2.00;1.10;;;;;;;11.77;100.00;99712.53;5033017;28;20035;-70
2022/09/27 08:34:52;;;;;;;4.75;1.05;;;;;;;11.83;100.00;99704.84;5042328;28;20040;-71
2022/09/27 08:37:19;;;;;;;4.78;0.90;;;;;;;11.92;100.00;99709.41;5026646;28;20067;-71
2022/09/27 08:39:46;;;;;;;5.00;0.73;;;;;;;11.84;100.00;99717.22;5041803;28;20040;-71
2022/09/27 08:42:44;;;;;;;3.58;1.13;;;;;;;12.13;100.00;99720.03;5037994;28;20033;-70
2022/09/27 08:45:17;;;;;;;3.67;0.82;;;;;;;11.87;100.00;99714.28;5041901;28;20036;-71
2022/09/27 08:47:53;;;;;;;2.55;1.25;;;;;;;12.04;100.00;99715.47;5036150;28;20139;-69
2022/09/27 08:50:35;;;;;;;6.15;1.55;;;;;;;12.07;100.00;99725.06;5051322;28;20043;-71
2022/09/27 08:53:18;;;;;;;6.35;1.13;;;;;;;11.97;100.00;99730.38;5031200;28;20068;-72
2022/09/27 08:55:49;;;;;;;3.55;1.48;;;;;;;11.84;100.00;99729.72;5036856;28;20036;-71
2022/09/27 08:58:27;;;;;;;3.95;1.40;;;;;;;12.01;100.00;99725.63;5025037;28;20043;-69
2022/09/27 09:00:56;;;;;;;4.07;1.30;;;;;;;11.69;100.00;99734.53;5032290;28;20089;-69
2022/09/27 09:03:31;;;;;;;4.78;1.30;;;;;;;11.38;100.00;99729.13;5039250;28;20048;-70
2022/09/27 09:06:12;;;;;;;;;;;;;;;11.46;100.00;99727.66;5038468;28;20033;-71
2022/09/27 09:08:52;;;;;;;3.05;1.55;;;;;;;11.64;100.00;99726.91;5038195;28;19920;-71
2022/09/27 09:14:20;;;;;;;5.60;1.80;;;;;;;11.65;100.00;99717.94;5037468;28;20041;-70
2022/09/27 09:16:57;;;;;;;4.03;1.90;;;;;;;11.42;100.00;99732.41;5035866;28;20089;-70
2022/09/27 09:19:45;;;;;;;2.22;1.83;;;;;;;11.80;100.00;99729.13;5023319;28;20178;-71
2022/09/27 09:22:39;;;;;;;3.30;2.20;;;;;;;11.97;100.00;99730.38;5047535;28;20033;-68
2022/09/27 09:25:17;;;;;;;3.63;2.42;;;;;;;11.95;100.00;99727.00;5053439;28;20175;-71
2022/09/27 09:27:52;;;;;;;6.15;2.42;;;;;;;11.75;100.00;99731.34;5038658;28;20696;-69
2022/09/27 09:30:21;;;;;;;9.20;2.20;;;;;;;12.09;100.00;99723.94;5033785;28;20093;-69
2022/09/27 09:33:09;;;;;;;3.72;2.72;;;;;;;12.28;100.00;99725.84;5035773;28;20040;-68
2022/09/27 09:36:17;;;;;;;2.45;1.95;;;;;;;12.18;100.00;99720.47;5024555;28;20458;-70
2022/09/27 09:38:49;;;;;;;3.20;1.70;;;;;;;12.43;100.00;99720.97;4926069;29;20199;-71
2022/09/27 09:41:42;;;;;;;3.08;1.67;;;;;;;12.73;100.00;99725.41;4935130;28;20045;-69
2022/09/27 09:44:23;;;;;;;8.43;1.60;;;;;;;12.56;100.00;99718.06;4930120;28;20047;-71
2022/09/27 09:46:52;;;;;;;3.58;1.30;;;;;;;12.86;100.00;99717.13;4939018;28;20059;-72
2022/09/27 09:49:46;;;;;;;2.47;1.45;;;;;;;12.67;100.00;99723.28;4927521;29;20198;-72
2022/09/27 09:52:22;;;;;;;3.85;1.77;;;;;;;12.41;100.00;99721.13;4939239;28;20119;-69
2022/09/27 09:54:57;;;;;;;2.17;1.23;;;;;;;12.01;100.00;99728.28;4938558;28;20043;-71
2022/09/27 09:57:29;;;;;;;2.03;1.27;;;;;;;11.83;100.00;99728.88;4933386;29;20490;-70
2022/09/27 10:00:04;;;;;;;2.45;1.73;;;;;;;11.64;100.00;99734.06;4932888;28;20572;-71
2022/09/27 10:02:43;;;;;;;1.95;1.50;;;;;;;11.76;100.00;99735.72;4943787;28;20117;-70
2022/09/27 10:05:15;;;;;;;2.72;2.05;;;;;;;11.72;100.00;99733.44;4936554;28;20105;-70
2022/09/27 10:07:41;;;;;;;4.72;2.35;;;;;;;11.64;100.00;99729.59;4923166;28;20035;-71
2022/09/27 10:10:13;;;;;;;5.28;2.55;;;;;;;11.39;100.00;99727.31;4926281;29;20070;-69
2022/09/27 10:13:16;;;;;;;3.40;2.50;;;;;;;11.11;100.00;99734.13;4999712;28;20037;-71
2022/09/27 10:15:52;;;;;;;4.88;3.03;;;;;;;10.88;100.00;99731.53;5042674;28;20048;-71
2022/09/27 10:18:18;;;;;;;5.45;3.10;;;;;;;10.77;100.00;99730.75;5036500;28;20136;-71
2022/09/27 10:20:54;;;;;;;10.65;3.60;;;;;;;10.67;100.00;99730.66;5036322;28;20838;-71
2022/09/27 10:23:23;;;;;;;6.95;3.70;;;;;;;10.89;100.00;99725.25;5037856;28;20088;-71
2022/09/27 10:26:11;;;;;;;5.43;3.20;;;;;;;11.25;100.00;99716.97;5023034;28;20633;-69
2022/09/27 10:28:44;;;;;;;4.03;2.70;;;;;;;11.26;100.00;99719.50;5036513;28;20052;-70
2022/09/27 10:31:19;;;;;;;6.75;2.70;;;;;;;11.77;100.00;99721.38;5034408;28;20036;-72
2022/09/27 10:34:01;;;;;;;4.38;2.13;;;;;;;11.77;100.00;99720.53;5027886;28;20041;-70
2022/09/27 10:36:32;;;;;;;6.00;1.98;;;;;;;11.86;100.00;99723.28;5035710;28;20037;-71
2022/09/27 10:39:00;;;;;;;4.53;2.65;;;;;;;11.91;100.00;99730.91;5037192;28;20608;-72
2022/09/27 10:41:40;;;;;;;2.30;1.73;;;;;;;11.65;100.00;99725.13;5037381;28;20147;-70
2022/09/27 10:44:31;;;;;;;2.00;1.30;;;;;;;11.88;100.00;99718.66;5038278;28;20461;-74
2022/09/27 10:47:11;;;;;;;5.20;0.90;;;;;;;11.58;100.00;99727.44;5030717;28;20043;-70
2022/09/27 10:50:06;;;;;;;3.10;0.90;;;;;;;11.82;100.00;99731.69;5017719;28;20049;-70
2022/09/27 10:53:18;;;;;;;3.22;0.73;;;;;;;11.89;100.00;99738.19;5037024;28;20037;-70
2022/09/27 10:55:51;;;;;;;2.55;0.80;;;;;;;12.08;100.00;99727.59;5030061;28;20820;-71
2022/09/27 10:58:30;;;;;;;7.13;1.37;;;;;;;11.92;100.00;99730.75;5049763;28;20795;-70
2022/09/27 11:01:00;;;;;;;3.78;1.08;;;;;;;12.06;100.00;99728.72;5037240;28;20037;-68
2022/09/27 11:03:27;;;;;;;2.80;1.38;;;;;;;12.33;100.00;99734.31;5033019;28;20052;-68
2022/09/27 11:05:55;;;;;;;8.20;2.63;;;;;;;12.54;100.00;99731.53;5034051;28;20606;-70
2022/09/27 11:08:27;;;;;;;3.20;1.08;;;;;;;12.48;100.00;99732.09;5018379;28;20048;-70
2022/09/27 11:11:00;;;;;;;2.55;1.25;;;;;;;12.76;100.00;99737.66;5036447;28;20062;-70
2022/09/27 11:13:31;;;;;;;4.53;0.90;;;;;;;12.88;100.00;99728.50;5037336;28;20055;-71
2022/09/27 11:16:37;;;;;;;2.85;0.98;;;;;;;12.27;100.00;99728.66;5032714;28;20072;-70
2022/09/27 11:19:02;;;;;;;1.88;0.65;;;;;;;12.54;100.00;99734.22;5034261;28;20037;-70
2022/09/27 11:21:41;;;;;;;3.83;0.95;;;;;;;12.63;100.00;99733.41;5032701;28;20148;-70
2022/09/27 11:24:19;;;;;;;2.40;0.80;;;;;;;12.36;100.00;99734.03;5014478;28;20882;-68
2022/09/27 11:27:09;;;;;;;4.88;1.13;;;;;;;12.83;100.00;99733.44;5051598;28;20147;-71
2022/09/27 11:29:45;;;;;;;4.07;0.73;;;;;;;12.54;100.00;99733.38;5035480;28;20029;-68
2022/09/27 11:32:57;;;;;;;6.03;0.85;;;;;;;12.67;100.00;99740.16;5026360;28;20041;-69
2022/09/27 11:35:32;;;;;;;1.10;0.60;;;;;;;12.52;100.00;99738.88;5022028;28;20042;-69
2022/09/27 11:38:16;;;;;;;1.75;0.90;;;;;;;12.13;100.00;99730.72;5041102;28;20068;-68
2022/09/27 11:41:10;;;;;;;4.07;0.93;;;;;;;12.12;100.00;99737.03;5042932;28;20792;-70
2022/09/27 11:43:39;;;;;;;1.73;0.60;;;;;;;12.30;97.86;99741.75;5027840;28;20090;-70
2022/09/27 11:46:26;;;;;;;0.68;0.30;;;;;;;12.21;97.57;99737.22;5041572;28;20040;-69
2022/09/27 11:49:17;;;;;;;6.22;0.93;;;;;;;12.31;97.00;99740.78;5037272;28;20028;-70
2022/09/27 11:52:21;;;;;;;2.72;0.85;;;;;;;12.35;98.58;99742.19;5055818;28;20048;-68
2022/09/27 11:55:13;;;;;;;1.27;0.50;;;;;;;12.33;98.17;99741.47;5056803;28;20573;-69
2022/09/27 11:57:52;;;;;;;0.45;0.40;;;;;;;12.87;98.08;99735.69;5035913;28;20048;-71
2022/09/27 12:00:32;;;;;;;3.03;0.82;;;;;;;13.34;97.10;99733.19;5024166;28;20044;-71
2022/09/27 12:03:32;;;;;;;3.45;0.73;;;;;;;12.98;96.44;99741.91;5054823;28;20056;-70
2022/09/27 12:06:17;;;;;;;2.85;0.73;;;;;;;13.41;100.00;99726.28;5030964;28;20092;-68
2022/09/27 12:08:50;;;;;;;5.60;0.52;;;;;;;13.18;97.91;99730.22;5039087;28;20099;-70
2022/09/27 12:11:33;;;;;;;2.58;0.63;;;;;;;13.16;98.05;99727.69;5043076;28;20056;-68
2022/09/27 12:14:28;;;;;;;1.15;0.52;;;;;;;13.16;99.46;99730.38;5034512;28;20116;-69
2022/09/27 12:16:56;;;;;;;2.22;0.57;;;;;;;13.18;95.77;99727.53;5035085;28;20511;-67